createdAt,value
2019-01-05T00:01:25.854Z,99756.39
2019-01-05T00:04:15.335Z,99758.48
2019-01-05T00:07:04.978Z,99753.81
2019-01-05T00:09:58.572Z,99764.87
2019-01-05T00:13:01.558Z,99764.01
2019-01-05T00:15:52.327Z,99760.16
2019-01-05T00:18:51.202Z,99755.03
2019-01-05T00:21:45.886Z,99752.45
2019-01-05T00:24:55.800Z,99754.11
2019-01-05T00:27:56.002Z,99747.25
2019-01-05T00:30:47.839Z,99746.80
2019-01-05T00:33:38.956Z,99752.24
2019-01-05T00:36:40.391Z,99748.83
2019-01-05T00:39:29.757Z,99744.08
2019-01-05T00:42:28.818Z,99742.39
2019-01-05T00:45:34.464Z,99741.44
2019-01-05T00:48:24.932Z,99737.13
2019-01-05T00:51:21.276Z,99734.53
2019-01-05T00:54:30.793Z,99745.02
2019-01-05T00:57:37.738Z,99739.47
2019-01-05T01:00:34.951Z,99748.38
2019-01-05T01:03:37.639Z,99752.66
2019-01-05T01:06:37.353Z,99751.42
2019-01-05T01:09:18.831Z,99761.97
2019-01-05T01:12:18.752Z,99759.78
2019-01-05T01:15:09.724Z,99763.96
2019-01-05T01:18:12.403Z,99758.87
2019-01-05T01:21:09.325Z,99754.64
2019-01-05T01:24:13.102Z,99756.73
2019-01-05T01:27:03.196Z,99756.72
2019-01-05T01:29:50.241Z,99754.23
2019-01-05T01:32:42.337Z,99747.11
2019-01-05T01:35:41.824Z,99753.52
2019-01-05T01:38:49.421Z,99748.39
2019-01-05T01:41:59.004Z,99751.33
2019-01-05T01:44:52.182Z,99747.10
2019-01-05T01:47:43.006Z,99749.59
2019-01-05T01:50:40.900Z,99757.58
2019-01-05T01:53:32.873Z,99751.92
2019-01-05T01:56:31.209Z,99758.63
2019-01-05T01:59:33.389Z,99764.93
2019-01-05T02:02:26.851Z,99764.81
2019-01-05T02:05:16.922Z,99759.25
2019-01-05T02:08:15.829Z,99762.94
2019-01-05T02:11:21.023Z,99768.77
2019-01-05T02:14:23.455Z,99763.69
2019-01-05T02:17:25.945Z,99765.76
2019-01-05T02:21:18.203Z,99764.47
2019-01-05T02:24:42.378Z,99758.11
2019-01-05T02:28:29.999Z,99759.38
2019-01-05T02:32:00.085Z,99755.12
2019-01-05T02:35:48.345Z,99752.98
2019-01-05T02:40:01.896Z,99750.16
2019-01-05T02:44:11.741Z,99737.44
2019-01-05T02:48:16.986Z,99734.91
2019-01-05T02:51:52.388Z,99722.79
2019-01-05T02:56:01.065Z,99706.53
2019-01-05T02:59:58.111Z,99700.42
2019-01-05T03:03:25.896Z,99688.11
2019-01-05T03:07:20.741Z,99677.44
2019-01-05T03:11:30.396Z,99668.47
2019-01-05T03:15:32.276Z,99672.25
2019-01-05T03:19:14.327Z,99671.11
2019-01-05T03:23:40.430Z,99659.80
2019-01-05T03:27:24.830Z,99658.56
2019-01-05T03:30:48.849Z,99636.20
2019-01-05T03:34:31.315Z,99634.55
2019-01-05T03:38:33.606Z,99629.39
2019-01-05T03:42:17.587Z,99626.33
2019-01-05T03:46:35.713Z,99623.66
2019-01-05T03:50:35.195Z,99622.22
2019-01-05T03:54:48.504Z,99626.67
2019-01-05T03:58:43.209Z,99625.70
2019-01-05T04:02:34.571Z,99635.00
2019-01-05T04:06:25.895Z,99631.14
2019-01-05T04:10:12.105Z,99636.67
2019-01-05T04:13:50.776Z,99627.33
2019-01-05T04:17:31.081Z,99617.31
2019-01-05T04:21:32.446Z,99615.91
2019-01-05T04:25:23.280Z,99613.19
2019-01-05T04:29:11.156Z,99605.28
2019-01-05T04:32:51.060Z,99623.66
2019-01-05T04:36:31.345Z,99606.72
2019-01-05T04:40:02.345Z,99611.03
2019-01-05T04:44:04.827Z,99608.94
2019-01-05T04:47:37.462Z,99609.36
2019-01-05T04:51:52.598Z,99613.21
2019-01-05T04:55:53.597Z,99619.16
2019-01-05T04:59:54.332Z,99628.11
2019-01-05T05:03:26.916Z,99609.38
2019-01-05T05:07:25.802Z,99616.20
2019-01-05T05:11:13.543Z,99611.09
2019-01-05T05:15:10.493Z,99606.86
2019-01-05T05:19:20.788Z,99600.45
2019-01-05T05:22:55.786Z,99590.68
2019-01-05T05:26:47.400Z,99585.16
2019-01-05T05:31:02.692Z,99573.64
2019-01-05T05:34:51.979Z,99577.05
2019-01-05T05:38:39.385Z,99583.43
2019-01-05T05:42:54.765Z,99577.48
2019-01-05T05:46:40.556Z,99579.20
2019-01-05T05:50:41.837Z,99593.66
2019-01-05T05:54:31.451Z,99592.80
2019-01-05T05:58:32.463Z,99588.52
2019-01-05T06:02:19.851Z,99587.25
2019-01-05T06:06:05.046Z,99589.36
2019-01-05T06:09:48.241Z,99585.12
2019-01-05T06:13:55.783Z,99585.12
2019-01-05T06:17:44.637Z,99585.53
2019-01-05T06:22:07.750Z,99595.32
2019-01-05T06:26:05.474Z,99594.89
2019-01-05T06:29:49.807Z,99598.30
2019-01-05T06:33:44.770Z,99601.27
2019-01-05T06:37:30.221Z,99597.45
2019-01-05T06:41:19.180Z,99610.67
2019-01-05T06:45:15.755Z,99610.23
2019-01-05T06:49:35.401Z,99603.88
2019-01-05T06:53:51.928Z,99597.08
2019-01-05T06:57:59.841Z,99579.17
2019-01-05T07:01:58.677Z,99570.66
2019-01-05T07:06:04.252Z,99577.89
2019-01-05T07:09:53.614Z,99583.81
2019-01-05T07:13:30.410Z,99599.56
2019-01-05T07:17:40.885Z,99597.85
2019-01-05T07:21:31.328Z,99612.73
2019-01-05T07:25:26.554Z,99593.19
2019-01-05T07:29:09.034Z,99587.26
2019-01-05T07:33:10.287Z,99596.88
2019-01-05T07:36:59.479Z,99593.84
2019-01-05T07:40:51.791Z,99584.95
2019-01-05T07:44:56.467Z,99591.42
2019-01-05T07:48:47.843Z,99585.02
2019-01-05T07:52:34.358Z,99590.06
2019-01-05T07:56:27.874Z,99582.23
2019-01-05T08:00:30.414Z,99591.41
2019-01-05T08:04:38.583Z,99586.34
2019-01-05T08:08:28.271Z,99577.39
2019-01-05T08:12:25.908Z,99582.36
2019-01-05T08:16:36.662Z,99602.31
2019-01-05T08:20:18.187Z,99591.77
2019-01-05T08:24:38.362Z,99592.22
2019-01-05T08:28:44.972Z,99574.87
2019-01-05T08:32:34.149Z,99573.84
2019-01-05T08:36:53.304Z,99561.61
2019-01-05T08:40:45.795Z,99549.52
2019-01-05T08:44:49.307Z,99549.84
2019-01-05T08:48:16.637Z,99544.80
2019-01-05T08:51:53.421Z,99525.96
2019-01-05T08:55:59.297Z,99523.47
2019-01-05T09:00:08.439Z,99518.38
2019-01-05T09:04:06.226Z,99504.76
2019-01-05T09:08:07.283Z,99508.69
2019-01-05T09:11:52.050Z,99512.36
2019-01-05T09:15:36.684Z,99506.06
2019-01-05T09:19:42.312Z,99509.16
2019-01-05T09:23:47.921Z,99504.41
2019-01-05T09:27:48.474Z,99507.81
2019-01-05T09:32:03.360Z,99520.37
2019-01-05T09:35:49.575Z,99508.75
2019-01-05T09:39:43.618Z,99516.02
2019-01-05T09:43:41.871Z,99515.55
2019-01-05T09:47:29.641Z,99515.97
2019-01-05T09:51:32.722Z,99508.53
2019-01-05T09:55:39.007Z,99508.34
2019-01-05T09:59:22.514Z,99503.04
2019-01-05T10:03:54.345Z,99508.34
2019-01-05T10:07:41.412Z,99496.70
2019-01-05T10:11:25.089Z,99492.22
2019-01-05T10:16:06.325Z,99477.13
2019-01-05T10:19:42.216Z,99477.88
2019-01-05T10:23:40.324Z,99462.92
2019-01-05T10:27:39.353Z,99465.75
2019-01-05T10:31:21.700Z,99454.23
2019-01-05T10:35:19.052Z,99445.06
2019-01-05T10:39:02.969Z,99439.77
2019-01-05T10:42:54.862Z,99435.33
2019-01-05T10:46:58.538Z,99431.57
2019-01-05T10:51:12.161Z,99422.37
2019-01-05T10:55:12.299Z,99400.94
2019-01-05T10:59:16.941Z,99393.43
2019-01-05T11:03:06.045Z,99391.45
2019-01-05T11:06:41.505Z,99383.92
2019-01-05T11:10:45.236Z,99386.38
2019-01-05T11:14:42.651Z,99385.53
2019-01-05T11:18:30.311Z,99374.89
2019-01-05T11:22:30.878Z,99363.06
2019-01-05T11:26:55.922Z,99360.37
2019-01-05T11:30:51.539Z,99349.33
2019-01-05T11:34:52.518Z,99340.47
2019-01-05T11:38:42.753Z,99327.64
2019-01-05T11:42:21.623Z,99314.65
2019-01-05T11:45:59.176Z,99314.83
2019-01-05T11:50:07.510Z,99313.00
2019-01-05T11:54:08.042Z,99299.33
2019-01-05T11:58:22.195Z,99290.75
2019-01-05T12:02:09.330Z,99288.53
2019-01-05T12:06:10.804Z,99287.99
2019-01-05T12:10:13.946Z,99272.28
2019-01-05T12:14:17.228Z,99260.22
2019-01-05T12:18:38.327Z,99252.26
2019-01-05T12:22:25.822Z,99246.70
2019-01-05T12:26:11.630Z,99243.60
2019-01-05T12:29:59.383Z,99238.03
2019-01-05T12:34:06.386Z,99226.63
2019-01-05T12:38:09.186Z,99223.36
2019-01-05T12:42:34.708Z,99212.52
2019-01-05T12:46:39.868Z,99214.33
2019-01-05T12:50:46.328Z,99199.83
2019-01-05T12:54:37.952Z,99197.28
2019-01-05T12:58:03.326Z,99196.44
2019-01-05T13:02:12.267Z,99194.70
2019-01-05T13:06:06.788Z,99195.23
2019-01-05T13:09:49.439Z,99193.35
2019-01-05T13:13:53.482Z,99190.02
2019-01-05T13:17:31.043Z,99182.09
2019-01-05T13:21:39.452Z,99180.70
2019-01-05T13:25:35.677Z,99185.66
2019-01-05T13:29:43.206Z,99171.28
2019-01-05T13:33:44.861Z,99177.67
2019-01-05T13:38:15.750Z,99167.17
2019-01-05T13:42:24.501Z,99164.42
2019-01-05T13:46:29.969Z,99155.51
2019-01-05T13:50:30.015Z,99155.42
2019-01-05T13:54:07.961Z,99156.53
2019-01-05T13:57:29.645Z,99163.08
2019-01-05T14:00:20.502Z,99167.27
2019-01-05T14:03:19.952Z,99157.52
2019-01-05T14:06:24.886Z,99151.20
2019-01-05T14:09:15.352Z,99150.91
2019-01-05T14:12:09.539Z,99147.01
2019-01-05T14:15:12.305Z,99149.97
2019-01-05T14:18:06.362Z,99157.23
2019-01-05T14:21:11.160Z,99155.03
2019-01-05T14:24:14.181Z,99153.06
2019-01-05T14:27:03.659Z,99151.30
2019-01-05T14:29:54.210Z,99154.13
2019-01-05T14:32:43.293Z,99149.38
2019-01-05T14:35:34.967Z,99154.05
2019-01-05T14:38:24.805Z,99148.63
2019-01-05T14:41:25.089Z,99143.12
2019-01-05T14:44:14.544Z,99140.66
2019-01-05T14:47:09.004Z,99133.48
2019-01-05T14:50:11.456Z,99114.63
2019-01-05T14:53:11.164Z,99119.91
2019-01-05T14:56:00.667Z,99118.13
2019-01-05T14:59:10.566Z,99114.49
2019-01-05T15:02:17.135Z,99113.20
2019-01-05T15:05:09.362Z,99124.66
2019-01-05T15:08:12.649Z,99121.05
2019-01-05T15:11:02.607Z,99111.95
2019-01-05T15:13:55.169Z,99109.58
2019-01-05T15:16:49.883Z,99107.11
2019-01-05T15:19:41.838Z,99110.92
2019-01-05T15:22:31.555Z,99111.01
2019-01-05T15:25:21.358Z,99105.05
2019-01-05T15:28:22.183Z,99102.53
2019-01-05T15:31:20.141Z,99106.11
2019-01-05T15:34:14.302Z,99104.05
2019-01-05T15:37:05.505Z,99112.36
2019-01-05T15:39:57.154Z,99109.84
2019-01-05T15:42:47.403Z,99108.63
2019-01-05T15:45:38.519Z,99104.78
2019-01-05T15:48:38.801Z,99095.42
2019-01-05T15:51:30.042Z,99098.38
2019-01-05T15:54:23.377Z,99104.10
2019-01-05T15:57:17.414Z,99108.16
2019-01-05T16:00:07.511Z,99116.59
2019-01-05T16:02:56.859Z,99097.43
2019-01-05T16:05:56.306Z,99116.95
2019-01-05T16:08:56.240Z,99110.23
2019-01-05T16:11:45.839Z,99108.61
2019-01-05T16:14:51.915Z,99104.80
2019-01-05T16:17:57.685Z,99110.76
2019-01-05T16:21:03.183Z,99109.66
2019-01-05T16:24:08.701Z,99095.09
2019-01-05T16:26:59.196Z,99112.91
2019-01-05T16:29:58.727Z,99124.33
2019-01-05T16:32:48.406Z,99119.99
2019-01-05T16:35:50.419Z,99122.55
2019-01-05T16:38:39.664Z,99122.18
2019-01-05T16:41:39.078Z,99115.83
2019-01-05T16:44:39.861Z,99105.94
2019-01-05T16:47:30.450Z,99113.47
2019-01-05T16:50:33.410Z,99121.89
2019-01-05T16:53:33.123Z,99123.59
2019-01-05T16:56:22.903Z,99121.12
2019-01-05T16:59:09.805Z,99118.31
2019-01-05T17:02:06.845Z,99112.03
2019-01-05T17:05:12.779Z,99113.38
2019-01-05T17:08:06.231Z,99123.12
2019-01-05T17:10:59.793Z,99131.34
2019-01-05T17:13:47.409Z,99129.79
2019-01-05T17:16:36.063Z,99122.22
2019-01-05T17:19:21.960Z,99123.63
2019-01-05T17:22:12.962Z,99121.11
2019-01-05T17:25:11.213Z,99112.23
2019-01-05T17:28:00.408Z,99112.20
2019-01-05T17:30:49.654Z,99116.26
2019-01-05T17:33:49.457Z,99111.85
2019-01-05T17:36:39.228Z,99102.38
2019-01-05T17:39:33.819Z,99106.87
2019-01-05T17:42:33.509Z,99112.55
2019-01-05T17:45:23.090Z,99120.70
2019-01-05T17:48:16.048Z,99114.80
2019-01-05T17:51:18.687Z,99109.09
2019-01-05T17:54:11.212Z,99111.52
2019-01-05T17:56:59.478Z,99109.94
2019-01-05T17:59:50.321Z,99097.58
2019-01-05T18:02:56.040Z,99104.83
2019-01-05T18:05:49.357Z,99111.76
2019-01-05T18:09:00.236Z,99119.10
2019-01-05T18:11:49.856Z,99125.78
2019-01-05T18:14:40.146Z,99128.80
2019-01-05T18:17:30.865Z,99124.76
2019-01-05T18:20:34.162Z,99127.62
2019-01-05T18:23:24.506Z,99134.78
2019-01-05T18:26:24.738Z,99125.25
2019-01-05T18:29:30.901Z,99118.72
2019-01-05T18:32:20.315Z,99116.98
2019-01-05T18:35:10.851Z,99116.02
2019-01-05T18:37:59.626Z,99124.44
2019-01-05T18:41:05.759Z,99113.17
2019-01-05T18:43:55.189Z,99114.20
2019-01-05T18:46:56.169Z,99121.38
2019-01-05T18:49:46.096Z,99113.23
2019-01-05T18:52:36.692Z,99118.56
2019-01-05T18:55:36.816Z,99124.19
2019-01-05T18:58:33.432Z,99121.45
2019-01-05T19:01:23.617Z,99127.92
2019-01-05T19:04:26.363Z,99121.08
2019-01-05T19:07:33.839Z,99122.81
2019-01-05T19:10:26.004Z,99123.15
2019-01-05T19:13:15.233Z,99120.11
2019-01-05T19:16:05.906Z,99114.72
2019-01-05T19:19:12.813Z,99114.72
2019-01-05T19:22:02.602Z,99108.13
2019-01-05T19:24:53.977Z,99119.52
2019-01-05T19:27:44.791Z,99119.12
2019-01-05T19:30:34.793Z,99119.26
2019-01-05T19:33:24.582Z,99122.44
2019-01-05T19:36:30.870Z,99121.41
2019-01-05T19:39:36.701Z,99114.20
2019-01-05T19:42:36.398Z,99109.48
2019-01-05T19:45:27.079Z,99101.77
2019-01-05T19:48:32.715Z,99102.88
2019-01-05T19:51:23.217Z,99103.59
2019-01-05T19:54:13.931Z,99110.06
2019-01-05T19:57:10.665Z,99100.04
2019-01-05T20:00:10.325Z,99098.16
2019-01-05T20:03:07.072Z,99091.05
2019-01-05T20:05:57.554Z,99101.45
2019-01-05T20:08:47.235Z,99094.46
2019-01-05T20:11:45.717Z,99097.23
2019-01-05T20:14:35.079Z,99107.05
2019-01-05T20:17:26.462Z,99109.77
2019-01-05T20:20:20.253Z,99109.69
2019-01-05T20:23:09.865Z,99107.27
2019-01-05T20:25:59.420Z,99111.84
2019-01-05T20:28:48.260Z,99112.69
2019-01-05T20:31:41.705Z,99114.77
2019-01-05T20:34:36.162Z,99117.42
2019-01-05T20:37:45.094Z,99121.74
2019-01-05T20:40:31.897Z,99120.55
2019-01-05T20:43:26.703Z,99122.12
2019-01-05T20:46:09.510Z,99109.93
2019-01-05T20:49:15.365Z,99118.40
2019-01-05T20:52:02.959Z,99108.50
2019-01-05T20:54:53.890Z,99116.97
2019-01-05T20:57:43.345Z,99112.13
2019-01-05T21:00:46.408Z,99115.05
2019-01-05T21:03:26.259Z,99115.39
2019-01-05T21:06:29.025Z,99117.02
2019-01-05T21:09:18.103Z,99116.55
2019-01-05T21:12:07.584Z,99109.09
2019-01-05T21:14:57.854Z,99113.05
2019-01-05T21:17:51.239Z,99105.33
2019-01-05T21:20:41.802Z,99110.13
2019-01-05T21:23:24.484Z,99110.23
2019-01-05T21:26:30.246Z,99111.27
2019-01-05T21:29:19.595Z,99110.14
2019-01-05T21:32:15.954Z,99103.38
2019-01-05T21:35:05.259Z,99104.57
2019-01-05T21:37:50.910Z,99083.12
2019-01-05T21:40:56.938Z,99110.05
2019-01-05T21:43:46.591Z,99101.17
2019-01-05T21:46:36.510Z,99107.53
2019-01-05T21:49:29.128Z,99103.52
2019-01-05T21:52:18.587Z,99110.66
2019-01-05T21:55:09.709Z,99101.14
2019-01-05T21:57:56.727Z,99104.06
2019-01-05T22:00:59.664Z,99107.88
2019-01-05T22:03:50.033Z,99100.33
2019-01-05T22:06:43.817Z,99103.22
2019-01-05T22:09:50.472Z,99106.62
2019-01-05T22:12:43.953Z,99112.57
2019-01-05T22:15:50.377Z,99104.38
2019-01-05T22:18:53.239Z,99107.44
2019-01-05T22:21:42.634Z,99102.33
2019-01-05T22:24:40.464Z,99105.55
2019-01-05T22:27:30.959Z,99102.28
2019-01-05T22:30:28.021Z,99103.47
2019-01-05T22:33:18.707Z,99094.14
2019-01-05T22:36:09.298Z,99091.06
2019-01-05T22:39:11.064Z,99092.60
2019-01-05T22:42:13.487Z,99086.86
2019-01-05T22:45:06.733Z,99094.45
2019-01-05T22:48:06.700Z,99100.56
2019-01-05T22:51:09.731Z,99104.91
2019-01-05T22:53:59.388Z,99096.65
2019-01-05T22:56:48.959Z,99099.00
2019-01-05T22:59:45.382Z,99101.08
2019-01-05T23:02:38.771Z,99098.77
2019-01-05T23:05:27.911Z,99100.50
2019-01-05T23:08:13.782Z,99094.48
2019-01-05T23:11:04.200Z,99104.81
2019-01-05T23:14:07.153Z,99101.86
2019-01-05T23:17:06.732Z,99099.10
2019-01-05T23:20:13.193Z,99107.36
2019-01-05T23:23:06.431Z,99100.63
2019-01-05T23:25:55.809Z,99106.03
2019-01-05T23:28:45.197Z,99101.47
2019-01-05T23:31:34.966Z,99107.14
2019-01-05T23:34:17.581Z,99106.49
2019-01-05T23:37:23.859Z,99110.09
2019-01-05T23:40:23.543Z,99110.91
2019-01-05T23:43:29.186Z,99101.87
2019-01-05T23:46:19.958Z,99095.69
2019-01-05T23:49:09.721Z,99091.78
2019-01-05T23:52:00.701Z,99093.93
2019-01-05T23:54:50.100Z,99099.30
2019-01-05T23:57:46.717Z,99100.41
